Time;durP1;ratioP1;P1;durP2;ratioP2;P2;SDS_P1;SDS_P2;PMS_P1;PMS_P2;Temp;Humidity;BMP_temperature;BMP_pressure;BME280_temperature;BME280_humidity;BME280_pressure;Samples;Min_cycle;Max_cycle;Signal;HPM_P1;HPM_P2
2022/10/01 00:01:42;;;;;;;;;;;;;;;;;;5056281;28;19929;-54
2022/10/01 00:04:09;;;;;;;;;;;;;;;;;;5073561;28;19924;-52
2022/10/01 00:06:36;;;;;;;;;;;;;;;;;;5073735;28;20015;-52
2022/10/01 00:09:03;;;;;;;;;;;;;;;;;;5073778;28;19929;-51
2022/10/01 00:11:29;;;;;;;;;;;;;;;;;;5074102;28;20397;-54
2022/10/01 00:13:57;;;;;;;;;;;;;;;;;;5074072;28;19934;-54
2022/10/01 00:16:24;;;;;;;;;;;;;;;;;;5073710;28;20309;-53
2022/10/01 00:18:52;;;;;;;;;;;;;;;;;;5073396;28;19925;-51
2022/10/01 00:21:20;;;;;;;;;;;;;;;;;;5073833;28;19978;-54
2022/10/01 00:23:47;;;;;;;;;;;;;;;;;;5072785;28;19925;-55
2022/10/01 00:26:15;;;;;;;;;;;;;;;;;;5073333;28;20351;-54
2022/10/01 00:28:43;;;;;;;;;;;;;;;;;;5073440;28;19924;-55
2022/10/01 00:31:10;;;;;;;;;;;;;;;;;;5073458;28;20412;-55
2022/10/01 00:33:37;;;;;;;;;;;;;;;;;;5073081;28;19932;-54
2022/10/01 00:36:04;;;;;;;;;;;;;;;;;;5073315;28;19928;-50
2022/10/01 00:38:32;;;;;;;;;;;;;;;;;;5072910;28;20219;-51
2022/10/01 00:40:59;;;;;;;;;;;;;;;;;;5073157;28;19924;-50
2022/10/01 00:43:26;;;;;;;;;;;;;;;;;;5073092;28;19928;-51
2022/10/01 00:45:55;;;;;;;;;;;;;;;;;;5072966;28;20385;-53
2022/10/01 00:48:22;;;;;;;;;;;;;;;;;;5072950;28;19924;-51
2022/10/01 00:50:49;;;;;;;;;;;;;;;;;;5072953;28;19951;-51
2022/10/01 00:53:17;;;;;;;;;;;;;;;;;;5072810;28;20344;-51
2022/10/01 00:55:46;;;;;;;;;;;;;;;;;;5072757;28;19924;-55
2022/10/01 00:58:14;;;;;;;;;;;;;;;;;;5072794;28;19924;-55
2022/10/01 01:00:41;;;;;;;;;;;;;;;;;;5072396;28;19983;-50
2022/10/01 01:03:09;;;;;;;;;;;;;;;;;;5058704;28;19932;-54
2022/10/01 01:05:36;;;;;;;;;;;;;;;;;;5052827;28;20274;-50
2022/10/01 01:08:03;;;;;;;;;;;;;;;;;;5052648;28;19932;-52
2022/10/01 01:10:33;;;;;;;;;;;;;;;;;;5052357;28;19924;-51
2022/10/01 01:13:09;;;;;;;;;;;;;;;;;;5052348;28;19929;-53
2022/10/01 01:15:39;;;;;;;;;;;;;;;;;;5052554;28;19988;-56
2022/10/01 01:18:09;;;;;;;;;;;;;;;;;;5052540;28;19983;-53
2022/10/01 01:20:48;;;;;;;;;;;;;;;;;;5051766;28;19968;-55
2022/10/01 01:23:35;;;;;;;;;;;;;;;;;;5052073;28;19924;-54
2022/10/01 01:26:10;;;;;;;;;;;;;;;;;;5048831;28;19925;-56
2022/10/01 01:28:39;;;;;;;;;;;;;;;;;;5052327;28;19979;-56
2022/10/01 01:31:07;;;;;;;;;;;;;;;;;;5052227;28;20427;-52
2022/10/01 01:33:39;;;;;;;;;;;;;;;;;;5052318;28;19978;-54
2022/10/01 01:36:07;;;;;;;;;;;;;;;;;;5051790;28;20408;-54
2022/10/01 01:38:37;;;;;;;;;;;;;;;;;;5052153;28;19924;-55
2022/10/01 01:41:05;;;;;;;;;;;;;;;;;;5052258;28;19994;-50
2022/10/01 01:43:33;;;;;;;;;;;;;;;;;;5052258;28;19929;-52
2022/10/01 01:46:03;;;;;;;;;;;;;;;;;;5051961;28;20279;-50
2022/10/01 01:48:31;;;;;;;;;;;;;;;;;;5052112;28;19974;-53
2022/10/01 01:51:00;;;;;;;;;;;;;;;;;;5051948;28;19925;-52
2022/10/01 01:53:30;;;;;;;;;;;;;;;;;;5052078;28;19932;-52
2022/10/01 01:55:59;;;;;;;;;;;;;;;;;;5052103;28;19983;-52
2022/10/01 01:58:26;;;;;;;;;;;;;;;;;;5051831;28;19928;-54
2022/10/01 02:00:53;;;;;;;;;;;;;;;;;;5051843;28;20008;-52
2022/10/01 02:03:22;;;;;;;;;;;;;;;;;;5067672;28;19924;-54
2022/10/01 02:05:56;;;;;;;;;;;;;;;;;;5071768;28;19925;-50
2022/10/01 02:08:34;;;;;;;;;;;;;;;;;;5071744;28;19982;-53
2022/10/01 02:11:21;;;;;;;;;;;;;;;;;;5071956;28;19970;-53
2022/10/01 02:13:58;;;;;;;;;;;;;;;;;;5068352;28;19928;-53
2022/10/01 02:16:30;;;;;;;;;;;;;;;;;;5072300;28;19928;-51
2022/10/01 02:19:00;;;;;;;;;;;;;;;;;;5071811;28;20459;-51
2022/10/01 02:21:30;;;;;;;;;;;;;;;;;;5071824;28;19986;-52
2022/10/01 02:23:59;;;;;;;;;;;;;;;;;;5071958;28;20331;-53
2022/10/01 02:26:27;;;;;;;;;;;;;;;;;;5071709;28;20478;-52
2022/10/01 02:28:56;;;;;;;;;;;;;;;;;;5071805;28;19924;-51
2022/10/01 02:31:23;;;;;;;;;;;;;;;;;;5071688;28;19928;-52
2022/10/01 02:33:50;;;;;;;;;;;;;;;;;;5071833;28;19924;-56
2022/10/01 02:36:19;;;;;;;;;;;;;;;;;;5071696;28;19924;-51
2022/10/01 02:38:47;;;;;;;;;;;;;;;;;;5071859;28;19990;-51
2022/10/01 02:41:15;;;;;;;;;;;;;;;;;;5071523;28;19924;-52
2022/10/01 02:43:43;;;;;;;;;;;;;;;;;;5071490;28;19931;-51
2022/10/01 02:46:13;;;;;;;;;;;;;;;;;;5072944;28;19977;-50
2022/10/01 02:48:39;;;;;;;;;;;;;;;;;;5075274;28;19925;-53
2022/10/01 02:51:13;;;;;;;;;;;;;;;;;;5075184;28;19929;-53
2022/10/01 02:53:43;;;;;;;;;;;;;;;;;;5075320;28;20011;-55
2022/10/01 02:56:11;;;;;;;;;;;;;;;;;;5075166;28;19972;-51
2022/10/01 02:58:36;;;;;;;;;;;;;;;;;;5074636;28;19985;-54
2022/10/01 03:01:03;;;;;;;;;;;;;;;;;;5074640;28;20381;-52
2022/10/01 03:03:30;;;;;;;;;;;;;;;;;;5057985;28;20014;-56
2022/10/01 03:05:56;;;;;;;;;;;;;;;;;;5054816;28;20015;-52
2022/10/01 03:08:23;;;;;;;;;;;;;;;;;;5054706;28;19929;-52
2022/10/01 03:10:51;;;;;;;;;;;;;;;;;;5054788;28;19924;-55
2022/10/01 03:13:18;;;;;;;;;;;;;;;;;;5054881;28;19988;-53
2022/10/01 03:15:46;;;;;;;;;;;;;;;;;;5054943;28;19970;-54
2022/10/01 03:18:12;;;;;;;;;;;;;;;;;;5054648;28;19931;-55
2022/10/01 03:20:39;;;;;;;;;;;;;;;;;;5054491;28;19925;-56
2022/10/01 03:23:05;;;;;;;;;;;;;;;;;;5054695;28;19932;-54
2022/10/01 03:25:32;;;;;;;;;;;;;;;;;;5054627;28;19929;-55
2022/10/01 03:28:00;;;;;;;;;;;;;;;;;;5054694;28;20014;-54
2022/10/01 03:30:27;;;;;;;;;;;;;;;;;;5054279;28;19925;-51
2022/10/01 03:32:53;;;;;;;;;;;;;;;;;;5054741;28;20378;-51
2022/10/01 03:35:20;;;;;;;;;;;;;;;;;;5054521;28;19970;-55
2022/10/01 03:37:46;;;;;;;;;;;;;;;;;;5054389;28;19979;-51
2022/10/01 03:40:13;;;;;;;;;;;;;;;;;;5054209;28;19925;-53
2022/10/01 03:42:39;;;;;;;;;;;;;;;;;;5054553;28;19978;-52
2022/10/01 03:45:08;;;;;;;;;;;;;;;;;;5054365;28;19990;-51
2022/10/01 03:47:35;;;;;;;;;;;;;;;;;;5054299;28;19979;-51
2022/10/01 03:50:01;;;;;;;;;;;;;;;;;;5054011;28;19931;-54
2022/10/01 03:52:28;;;;;;;;;;;;;;;;;;5053857;28;19999;-53
2022/10/01 03:54:54;;;;;;;;;;;;;;;;;;5053938;28;19925;-51
2022/10/01 03:57:21;;;;;;;;;;;;;;;;;;5052960;28;19978;-55
2022/10/01 03:59:47;;;;;;;;;;;;;;;;;;5054042;28;19928;-53
2022/10/01 04:02:15;;;;;;;;;;;;;;;;;;5060507;28;19967;-56
2022/10/01 04:04:42;;;;;;;;;;;;;;;;;;5073814;28;19932;-53
2022/10/01 04:07:08;;;;;;;;;;;;;;;;;;5073624;28;19925;-51
2022/10/01 04:09:36;;;;;;;;;;;;;;;;;;5074030;28;19994;-51
2022/10/01 04:12:03;;;;;;;;;;;;;;;;;;5073911;28;20345;-52
2022/10/01 04:14:30;;;;;;;;;;;;;;;;;;5073960;28;20020;-50
2022/10/01 04:16:57;;;;;;;;;;;;;;;;;;5073593;28;20397;-52
2022/10/01 04:19:26;;;;;;;;;;;;;;;;;;5073477;28;19929;-54
2022/10/01 04:21:52;;;;;;;;;;;;;;;;;;5073442;28;19936;-52
2022/10/01 04:24:19;;;;;;;;;;;;;;;;;;5073591;28;19925;-53
2022/10/01 04:26:45;;;;;;;;;;;;;;;;;;5073652;28;20323;-50
2022/10/01 04:29:12;;;;;;;;;;;;;;;;;;5073286;28;19978;-51
2022/10/01 04:31:39;;;;;;;;;;;;;;;;;;5073284;28;19978;-52
2022/10/01 04:34:05;;;;;;;;;;;;;;;;;;5073461;28;19925;-56
2022/10/01 04:36:33;;;;;;;;;;;;;;;;;;5073129;28;19982;-52
2022/10/01 04:39:00;;;;;;;;;;;;;;;;;;5073014;28;19994;-51
2022/10/01 04:41:29;;;;;;;;;;;;;;;;;;5072991;28;19929;-54
2022/10/01 04:43:58;;;;;;;;;;;;;;;;;;5073367;28;19928;-54
2022/10/01 04:46:24;;;;;;;;;;;;;;;;;;5072981;28;19993;-51
2022/10/01 04:48:51;;;;;;;;;;;;;;;;;;5073152;28;19936;-51
2022/10/01 04:51:17;;;;;;;;;;;;;;;;;;5072962;28;19928;-51
2022/10/01 04:53:45;;;;;;;;;;;;;;;;;;5072864;28;19924;-51
2022/10/01 04:56:12;;;;;;;;;;;;;;;;;;5072926;28;19925;-55
2022/10/01 04:58:39;;;;;;;;;;;;;;;;;;5072641;28;20282;-56
2022/10/01 05:01:05;;;;;;;;;;;;;;;;;;5073075;28;19925;-51
2022/10/01 05:03:32;;;;;;;;;;;;;;;;;;5054996;28;20075;-50
2022/10/01 05:05:58;;;;;;;;;;;;;;;;;;5052670;28;19932;-53
2022/10/01 05:08:25;;;;;;;;;;;;;;;;;;5052299;28;19924;-54
2022/10/01 05:10:53;;;;;;;;;;;;;;;;;;5052579;28;19925;-53
2022/10/01 05:13:19;;;;;;;;;;;;;;;;;;5052302;28;19928;-52
2022/10/01 05:15:49;;;;;;;;;;;;;;;;;;5052271;28;20397;-52
2022/10/01 05:18:15;;;;;;;;;;;;;;;;;;5052445;28;20011;-52
2022/10/01 05:20:42;;;;;;;;;;;;;;;;;;5052188;28;19928;-51
2022/10/01 05:23:09;;;;;;;;;;;;;;;;;;5052025;28;19924;-52
2022/10/01 05:25:35;;;;;;;;;;;;;;;;;;5051896;28;19928;-52
2022/10/01 05:28:04;;;;;;;;;;;;;;;;;;5052272;28;19925;-55
2022/10/01 05:30:31;;;;;;;;;;;;;;;;;;5052071;28;20322;-53
2022/10/01 05:32:58;;;;;;;;;;;;;;;;;;5051910;28;19974;-51
2022/10/01 05:35:25;;;;;;;;;;;;;;;;;;5052312;28;19925;-51
2022/10/01 05:37:58;;;;;;;;;;;;;;;;;;5052131;28;19948;-51
2022/10/01 05:40:26;;;;;;;;;;;;;;;;;;5051880;28;20356;-54
2022/10/01 05:42:53;;;;;;;;;;;;;;;;;;5052376;28;19925;-52
2022/10/01 05:45:21;;;;;;;;;;;;;;;;;;5052049;28;19982;-49
2022/10/01 05:47:48;;;;;;;;;;;;;;;;;;5051994;28;19978;-51
2022/10/01 05:50:15;;;;;;;;;;;;;;;;;;5051519;28;19925;-50
2022/10/01 05:52:47;;;;;;;;;;;;;;;;;;5052026;28;19931;-50
2022/10/01 05:55:14;;;;;;;;;;;;;;;;;;5059651;22;19929;-49
2022/10/01 05:57:41;;;;;;;;;;;;;;;;;;5032484;28;20396;-48
2022/10/01 06:00:08;;;;;;;;;;;;;;;;;;5032200;28;19925;-49
2022/10/01 06:02:36;;;;;;;;;;;;;;;;;;5041199;28;19925;-50
2022/10/01 06:05:02;;;;;;;;;;;;;;;;;;5052063;28;19925;-49
2022/10/01 06:07:31;;;;;;;;;;;;;;;;;;5051904;28;19932;-49
2022/10/01 06:09:57;;;;;;;;;;;;;;;;;;5051714;28;19925;-49
2022/10/01 06:12:24;;;;;;;;;;;;;;;;;;5051880;28;20412;-49
2022/10/01 06:14:51;;;;;;;;;;;;;;;;;;5052056;28;19928;-51
2022/10/01 06:17:17;;;;;;;;;;;;;;;;;;5052082;28;19924;-52
2022/10/01 06:19:45;;;;;;;;;;;;;;;;;;5051405;28;19979;-50
2022/10/01 06:22:11;;;;;;;;;;;;;;;;;;5055312;28;19925;-51
2022/10/01 06:24:39;;;;;;;;;;;;;;;;;;5055738;28;19930;-52
2022/10/01 06:27:05;;;;;;;;;;;;;;;;;;5056128;28;19925;-49
2022/10/01 06:29:32;;;;;;;;;;;;;;;;;;5055820;28;19925;-49
2022/10/01 06:31:58;;;;;;;;;;;;;;;;;;5055829;28;20336;-52
2022/10/01 06:34:25;;;;;;;;;;;;;;;;;;5055615;28;19924;-50
2022/10/01 06:36:53;;;;;;;;;;;;;;;;;;5055753;28;19924;-50
2022/10/01 06:39:19;;;;;;;;;;;;;;;;;;5055398;28;19974;-49
2022/10/01 06:41:47;;;;;;;;;;;;;;;;;;5055822;28;19928;-50
2022/10/01 06:44:14;;;;;;;;;;;;;;;;;;5055430;28;19970;-52
2022/10/01 06:46:40;;;;;;;;;;;;;;;;;;5055593;28;19986;-53
2022/10/01 06:49:07;;;;;;;;;;;;;;;;;;5055226;28;19925;-50
2022/10/01 06:54:19;;;;;;;;;;;;;;;;;;5055763;28;20016;-51
2022/10/01 06:56:45;;;;;;;;;;;;;;;;;;5055812;28;20376;-51
2022/10/01 06:59:12;;;;;;;;;;;;;;;;;;5055268;28;19924;-51
2022/10/01 07:01:38;;;;;;;;;;;;;;;;;;5054388;28;20042;-52
2022/10/01 07:04:05;;;;;;;;;;;;;;;;;;5035821;28;19979;-50
2022/10/01 07:06:31;;;;;;;;;;;;;;;;;;5035519;28;19936;-50
2022/10/01 07:08:58;;;;;;;;;;;;;;;;;;5035373;28;19947;-50
2022/10/01 07:11:26;;;;;;;;;;;;;;;;;;5035541;28;20024;-52
2022/10/01 07:13:53;;;;;;;;;;;;;;;;;;5035414;28;19931;-50
2022/10/01 07:16:19;;;;;;;;;;;;;;;;;;5035628;28;19925;-50
2022/10/01 07:18:46;;;;;;;;;;;;;;;;;;5035249;28;19972;-50
2022/10/01 07:21:13;;;;;;;;;;;;;;;;;;5035255;28;19925;-50
2022/10/01 07:23:39;;;;;;;;;;;;;;;;;;5034832;28;19925;-53
2022/10/01 07:26:07;;;;;;;;;;;;;;;;;;5035147;28;19972;-52
2022/10/01 07:28:35;;;;;;;;;;;;;;;;;;5035032;28;20024;-51
2022/10/01 07:31:03;;;;;;;;;;;;;;;;;;5035046;28;19929;-50
2022/10/01 07:33:30;;;;;;;;;;;;;;;;;;5034063;28;19924;-52
2022/10/01 07:35:59;;;;;;;;;;;;;;;;;;5035341;28;19975;-50
2022/10/01 07:38:26;;;;;;;;;;;;;;;;;;5034810;28;20378;-51
2022/10/01 07:40:53;;;;;;;;;;;;;;;;;;5034726;28;19979;-47
2022/10/01 07:43:20;;;;;;;;;;;;;;;;;;5034644;28;20001;-47
2022/10/01 07:45:48;;;;;;;;;;;;;;;;;;5034908;28;20300;-50
2022/10/01 07:48:15;;;;;;;;;;;;;;;;;;5042882;28;19940;-50
2022/10/01 07:50:42;;;;;;;;;;;;;;;;;;5043484;28;19929;-51
2022/10/01 07:53:10;;;;;;;;;;;;;;;;;;5038998;28;20340;-49
2022/10/01 07:55:36;;;;;;;;;;;;;;;;;;5034784;28;19925;-51
2022/10/01 07:58:04;;;;;;;;;;;;;;;;;;5034962;28;19937;-50
2022/10/01 08:00:31;;;;;;;;;;;;;;;;;;5034681;28;20509;-48
2022/10/01 08:02:59;;;;;;;;;;;;;;;;;;5047326;28;20016;-51
2022/10/01 08:05:28;;;;;;;;;;;;;;;;;;5054760;28;19947;-49
2022/10/01 08:07:57;;;;;;;;;;;;;;;;;;5054438;28;19928;-48
2022/10/01 08:10:24;;;;;;;;;;;;;;;;;;5053868;28;19925;-51
2022/10/01 08:12:51;;;;;;;;;;;;;;;;;;5054368;28;20380;-50
2022/10/01 08:15:18;;;;;;;;;;;;;;;;;;5053780;28;19924;-49
2022/10/01 08:17:45;;;;;;;;;;;;;;;;;;5053981;28;20282;-48
2022/10/01 08:20:13;;;;;;;;;;;;;;;;;;5053929;28;19924;-49
2022/10/01 08:22:40;;;;;;;;;;;;;;;;;;5053896;28;19928;-49
2022/10/01 08:25:07;;;;;;;;;;;;;;;;;;5053915;28;19925;-49
2022/10/01 08:27:34;;;;;;;;;;;;;;;;;;5053840;28;19924;-52
2022/10/01 08:30:00;;;;;;;;;;;;;;;;;;5053963;28;20298;-49
2022/10/01 08:32:27;;;;;;;;;;;;;;;;;;5053876;28;19925;-52
2022/10/01 08:34:56;;;;;;;;;;;;;;;;;;5053410;28;19931;-51
2022/10/01 08:37:26;;;;;;;;;;;;;;;;;;5053988;28;19928;-50
2022/10/01 08:39:53;;;;;;;;;;;;;;;;;;5053438;28;19968;-49
2022/10/01 08:42:24;;;;;;;;;;;;;;;;;;5053624;28;20161;-50
2022/10/01 08:44:52;;;;;;;;;;;;;;;;;;5052868;28;19968;-48
2022/10/01 08:47:22;;;;;;;;;;;;;;;;;;5053361;28;19929;-50
2022/10/01 08:49:51;;;;;;;;;;;;;;;;;;5053093;28;19976;-52
2022/10/01 08:52:21;;;;;;;;;;;;;;;;;;5053227;28;19932;-48
2022/10/01 08:54:51;;;;;;;;;;;;;;;;;;5034732;28;19987;-52
2022/10/01 08:57:20;;;;;;;;;;;;;;;;;;5032707;28;19932;-51
2022/10/01 08:59:49;;;;;;;;;;;;;;;;;;5033050;28;20460;-49
2022/10/01 09:02:18;;;;;;;;;;;;;;;;;;5039164;28;20352;-49
2022/10/01 09:04:45;;;;;;;;;;;;;;;;;;5052414;28;19931;-52
2022/10/01 09:07:20;;;;;;;;;;;;;;;;;;5053195;28;19925;-49
2022/10/01 09:09:50;;;;;;;;;;;;;;;;;;5052882;28;19948;-50
2022/10/01 09:12:29;;;;;;;;;;;;;;;;;;5052978;28;19925;-50
2022/10/01 09:15:08;;;;;;;;;;;;;;;;;;5053537;28;19925;-51
2022/10/01 09:17:48;;;;;;;;;;;;;;;;;;5052991;28;19998;-53
2022/10/01 09:20:20;;;;;;;;;;;;;;;;;;5052699;28;19928;-50
2022/10/01 09:22:50;;;;;;;;;;;;;;;;;;5053204;28;19925;-52
2022/10/01 09:25:20;;;;;;;;;;;;;;;;;;5051567;28;21817;-51
2022/10/01 09:27:48;;;;;;;;;;;;;;;;;;5052961;28;19925;-50
2022/10/01 09:30:17;;;;;;;;;;;;;;;;;;5052451;28;19924;-51
2022/10/01 09:32:46;;;;;;;;;;;;;;;;;;5052615;28;20011;-51
2022/10/01 09:35:20;;;;;;;;;;;;;;;;;;5052564;28;19935;-48
2022/10/01 09:37:49;;;;;;;;;;;;;;;;;;5052857;28;19925;-50
2022/10/01 09:40:19;;;;;;;;;;;;;;;;;;5052441;28;19925;-49
2022/10/01 09:42:48;;;;;;;;;;;;;;;;;;5052482;28;19929;-49
2022/10/01 09:45:15;;;;;;;;;;;;;;;;;;5052512;28;20377;-53
2022/10/01 09:47:43;;;;;;;;;;;;;;;;;;5052439;28;19929;-49
2022/10/01 09:50:12;;;;;;;;;;;;;;;;;;5052431;28;19925;-48
2022/10/01 09:52:39;;;;;;;;;;;;;;;;;;5052540;28;20408;-50
2022/10/01 09:55:09;;;;;;;;;;;;;;;;;;5051777;28;20340;-50
2022/10/01 09:57:37;;;;;;;;;;;;;;;;;;5052536;28;19979;-49
2022/10/01 10:00:08;;;;;;;;;;;;;;;;;;5052623;28;19997;-49
2022/10/01 10:02:38;;;;;;;;;;;;;;;;;;5042977;28;19999;-50
2022/10/01 10:05:06;;;;;;;;;;;;;;;;;;5032653;28;20344;-51
2022/10/01 10:07:33;;;;;;;;;;;;;;;;;;5032208;28;19933;-49
2022/10/01 10:10:07;;;;;;;;;;;;;;;;;;5032559;28;20228;-49
2022/10/01 10:12:34;;;;;;;;;;;;;;;;;;5032471;28;19983;-51
2022/10/01 10:15:08;;;;;;;;;;;;;;;;;;5032491;28;19929;-51
2022/10/01 10:17:36;;;;;;;;;;;;;;;;;;5032616;28;19929;-49
2022/10/01 10:20:10;;;;;;;;;;;;;;;;;;5032149;28;20162;-50
2022/10/01 10:22:37;;;;;;;;;;;;;;;;;;5032347;28;19976;-48
2022/10/01 10:25:11;;;;;;;;;;;;;;;;;;5032186;28;19929;-48
2022/10/01 10:27:37;;;;;;;;;;;;;;;;;;5032306;28;20204;-52
2022/10/01 10:30:05;;;;;;;;;;;;;;;;;;5032008;28;19983;-48
2022/10/01 10:32:33;;;;;;;;;;;;;;;;;;5032237;28;19925;-49
2022/10/01 10:35:03;;;;;;;;;;;;;;;;;;5032156;28;19973;-50
2022/10/01 10:37:30;;;;;;;;;;;;;;;;;;5032460;28;19925;-49
2022/10/01 10:39:58;;;;;;;;;;;;;;;;;;5032056;28;19925;-51
2022/10/01 10:42:24;;;;;;;;;;;;;;;;;;5031941;28;19979;-48
2022/10/01 10:44:52;;;;;;;;;;;;;;;;;;5032202;28;20448;-51
2022/10/01 10:47:20;;;;;;;;;;;;;;;;;;5031802;28;19925;-48
2022/10/01 10:49:50;;;;;;;;;;;;;;;;;;5031801;28;19925;-49
2022/10/01 10:52:22;;;;;;;;;;;;;;;;;;5032015;28;19932;-49
2022/10/01 10:54:49;;;;;;;;;;;;;;;;;;5032560;28;19952;-51
2022/10/01 10:57:19;;;;;;;;;;;;;;;;;;5031790;28;20036;-49
2022/10/01 10:59:55;;;;;;;;;;;;;;;;;;5031953;28;19948;-49
2022/10/01 11:02:22;;;;;;;;;;;;;;;;;;5039556;28;20019;-49
2022/10/01 11:04:50;;;;;;;;;;;;;;;;;;5051800;28;19951;-48
2022/10/01 11:07:19;;;;;;;;;;;;;;;;;;5053054;28;19925;-50
2022/10/01 11:10:04;;;;;;;;;;;;;;;;;;5054803;28;19971;-48
2022/10/01 11:12:36;;;;;;;;;;;;;;;;;;5054902;28;19976;-48
2022/10/01 11:15:09;;;;;;;;;;;;;;;;;;5055753;28;19925;-53
2022/10/01 11:17:44;;;;;;;;;;;;;;;;;;5055016;28;19931;-50
2022/10/01 11:20:18;;;;;;;;;;;;;;;;;;5055003;28;19924;-51
2022/10/01 11:22:51;;;;;;;;;;;;;;;;;;5055476;28;19925;-50
2022/10/01 11:25:21;;;;;;;;;;;;;;;;;;5055200;28;20374;-54
2022/10/01 11:27:49;;;;;;;;;;;;;;;;;;5054899;28;19925;-50
2022/10/01 11:30:19;;;;;;;;;;;;;;;;;;5054993;28;19978;-49
2022/10/01 11:32:49;;;;;;;;;;;;;;;;;;5054853;28;19925;-48
2022/10/01 11:35:38;;;;;;;;;;;;;;;;;;5055181;28;20328;-51
2022/10/01 11:38:31;;;;;;;;;;;;;;;;;;5052236;28;19925;-55
2022/10/01 11:41:00;;;;;;;;;;;;;;;;;;5054766;28;19970;-50
2022/10/01 11:43:28;;;;;;;;;;;;;;;;;;5054719;28;19929;-50
2022/10/01 11:46:03;;;;;;;;;;;;;;;;;;5054759;28;19931;-47
2022/10/01 11:48:33;;;;;;;;;;;;;;;;;;5054481;28;19925;-51
2022/10/01 11:51:02;;;;;;;;;;;;;;;;;;5054405;28;19925;-51
2022/10/01 11:53:33;;;;;;;;;;;;;;;;;;5054833;28;19929;-51
2022/10/01 11:58:53;;;;;;;;;;;;;;;;;;5052949;22;20359;-78
2022/10/01 12:01:25;;;;;;;;;;;;;;;;;;5035194;28;19933;-78
2022/10/01 12:03:58;;;;;;;;;;;;;;;;;;5034952;28;20373;-78
2022/10/01 12:06:25;;;;;;;;;;;;;;;;;;5035245;28;19937;-78
2022/10/01 12:08:57;;;;;;;;;;;;;;;;;;5034686;28;19931;-78
2022/10/01 12:11:28;;;;;;;;;;;;;;;;;;5034916;28;19972;-77
2022/10/01 12:13:58;;;;;;;;;;;;;;;;;;5034880;28;19932;-78
2022/10/01 12:16:29;;;;;;;;;;;;;;;;;;5034338;28;20299;-77
2022/10/01 12:18:57;;;;;;;;;;;;;;;;;;5033771;28;19925;-78
2022/10/01 12:21:26;;;;;;;;;;;;;;;;;;5034398;28;19925;-77
2022/10/01 12:23:55;;;;;;;;;;;;;;;;;;5034731;28;19925;-77
2022/10/01 12:26:27;;;;;;;;;;;;;;;;;;5034503;28;19929;-78
2022/10/01 12:28:56;;;;;;;;;;;;;;;;;;5035039;28;19992;-79
2022/10/01 12:31:28;;;;;;;;;;;;;;;;;;5034848;28;19960;-78
2022/10/01 12:34:00;;;;;;;;;;;;;;;;;;5036074;28;20368;-80
2022/10/01 12:36:33;;;;;;;;;;;;;;;;;;5037221;28;20025;-79
2022/10/01 12:39:12;;;;;;;;;;;;;;;;;;5037829;28;19936;-79
2022/10/01 12:41:43;;;;;;;;;;;;;;;;;;5036839;28;20024;-79
2022/10/01 12:44:17;;;;;;;;;;;;;;;;;;5036790;28;19972;-79
2022/10/01 12:46:45;;;;;;;;;;;;;;;;;;5037160;28;19925;-78
2022/10/01 12:49:21;;;;;;;;;;;;;;;;;;5037070;28;19972;-79
2022/10/01 12:51:51;;;;;;;;;;;;;;;;;;5037723;28;19931;-79
2022/10/01 12:54:40;;;;;;;;;;;;;;;;;;5037459;28;20028;-80
2022/10/01 12:57:16;;;;;;;;;;;;;;;;;;5034218;28;20338;-79
2022/10/01 12:59:51;;;;;;;;;;;;;;;;;;5036530;28;19929;-80
2022/10/01 13:02:27;;;;;;;;;;;;;;;;;;5043891;28;19970;-80
2022/10/01 13:05:01;;;;;;;;;;;;;;;;;;5056926;28;19925;-79
2022/10/01 13:07:34;;;;;;;;;;;;;;;;;;5057567;28;19986;-79
2022/10/01 13:10:07;;;;;;;;;;;;;;;;;;5056394;28;19929;-79
2022/10/01 13:12:46;;;;;;;;;;;;;;;;;;5055895;28;20020;-80
2022/10/01 13:15:14;;;;;;;;;;;;;;;;;;5055546;28;19964;-78
2022/10/01 13:17:45;;;;;;;;;;;;;;;;;;5055984;28;19972;-79
2022/10/01 13:20:16;;;;;;;;;;;;;;;;;;5056013;28;19925;-79
2022/10/01 13:22:44;;;;;;;;;;;;;;;;;;5056238;28;19925;-80
2022/10/01 13:25:21;;;;;;;;;;;;;;;;;;5054309;28;19925;-79
2022/10/01 13:27:53;;;;;;;;;;;;;;;;;;5053555;28;19968;-78
2022/10/01 13:30:22;;;;;;;;;;;;;;;;;;5054307;28;19925;-78
2022/10/01 13:32:53;;;;;;;;;;;;;;;;;;5054161;28;19925;-79
2022/10/01 13:35:24;;;;;;;;;;;;;;;;;;5054598;28;20384;-79
2022/10/01 13:37:50;;;;;;;;;;;;;;;;;;5054881;28;20394;-80
2022/10/01 13:40:27;;;;;;;;;;;;;;;;;;5055636;28;19925;-79
2022/10/01 13:42:56;;;;;;;;;;;;;;;;;;5059414;28;19984;-78
2022/10/01 13:45:26;;;;;;;;;;;;;;;;;;5058086;28;19924;-79
2022/10/01 13:48:03;;;;;;;;;;;;;;;;;;5057511;28;20007;-79
2022/10/01 13:50:29;;;;;;;;;;;;;;;;;;5059085;28;19992;-80
2022/10/01 13:53:05;;;;;;;;;;;;;;;;;;5046337;28;19925;-77
2022/10/01 13:55:31;;;;;;;;;;;;;;;;;;5032681;28;19972;-78
2022/10/01 13:58:06;;;;;;;;;;;;;;;;;;5032721;28;19925;-77
2022/10/01 14:00:33;;;;;;;;;;;;;;;;;;5032886;28;19925;-79
2022/10/01 14:03:01;;;;;;;;;;;;;;;;;;5035501;28;19985;-76
2022/10/01 14:05:31;;;;;;;;;;;;;;;;;;5032759;28;20031;-77
2022/10/01 14:08:05;;;;;;;;;;;;;;;;;;5031939;28;19925;-77
2022/10/01 14:10:33;;;;;;;;;;;;;;;;;;5032145;28;19935;-76
2022/10/01 14:16:01;;;;;;;;;;;;;;;;;;5032698;28;19932;-76
2022/10/01 14:18:29;;;;;;;;;;;;;;;;;;5032552;28;19925;-77
2022/10/01 14:21:02;;;;;;;;;;;;;;;;;;5032071;28;20379;-76
2022/10/01 14:23:32;;;;;;;;;;;;;;;;;;5032236;28;19971;-77
2022/10/01 14:26:02;;;;;;;;;;;;;;;;;;5032329;28;20310;-76
2022/10/01 14:28:40;;;;;;;;;;;;;;;;;;5031957;28;20388;-77
2022/10/01 14:31:11;;;;;;;;;;;;;;;;;;5032196;28;19932;-77
2022/10/01 14:33:54;;;;;;;;;;;;;;;;;;5032355;28;20003;-76
2022/10/01 14:36:22;;;;;;;;;;;;;;;;;;5032127;28;19929;-76
2022/10/01 14:38:49;;;;;;;;;;;;;;;;;;5031878;28;19925;-77
2022/10/01 14:41:17;;;;;;;;;;;;;;;;;;5032038;28;20394;-76
2022/10/01 14:43:43;;;;;;;;;;;;;;;;;;5036074;28;19991;-77
2022/10/01 14:46:14;;;;;;;;;;;;;;;;;;5035669;28;20391;-75
2022/10/01 14:48:40;;;;;;;;;;;;;;;;;;5035563;28;19932;-76
2022/10/01 14:51:20;;;;;;;;;;;;;;;;;;5036054;28;19978;-76
2022/10/01 14:53:47;;;;;;;;;;;;;;;;;;5035490;28;19925;-76
2022/10/01 14:56:14;;;;;;;;;;;;;;;;;;5035713;28;20373;-75
2022/10/01 14:58:41;;;;;;;;;;;;;;;;;;5035889;28;19987;-77
2022/10/01 15:01:16;;;;;;;;;;;;;;;;;;5036534;28;19925;-77
2022/10/01 15:03:45;;;;;;;;;;;;;;;;;;5054647;28;19947;-76
2022/10/01 15:06:12;;;;;;;;;;;;;;;;;;5055321;28;20019;-76
2022/10/01 15:08:40;;;;;;;;;;;;;;;;;;5055179;28;20392;-76
2022/10/01 15:11:08;;;;;;;;;;;;;;;;;;5055058;28;19979;-77
2022/10/01 15:13:36;;;;;;;;;;;;;;;;;;5055058;28;19925;-75
2022/10/01 15:16:03;;;;;;;;;;;;;;;;;;5055355;28;19925;-77
2022/10/01 15:18:30;;;;;;;;;;;;;;;;;;5054990;28;20289;-77
2022/10/01 15:21:00;;;;;;;;;;;;;;;;;;5055006;28;19994;-75
2022/10/01 15:23:27;;;;;;;;;;;;;;;;;;5055052;28;19924;-76
2022/10/01 15:25:55;;;;;;;;;;;;;;;;;;5055212;28;19974;-75
2022/10/01 15:28:26;;;;;;;;;;;;;;;;;;5054448;28;20771;-76
2022/10/01 15:30:53;;;;;;;;;;;;;;;;;;5054973;28;20326;-76
2022/10/01 15:33:26;;;;;;;;;;;;;;;;;;5055153;28;19925;-75
2022/10/01 15:35:53;;;;;;;;;;;;;;;;;;5056572;28;20346;-76
2022/10/01 15:38:21;;;;;;;;;;;;;;;;;;5054467;28;19931;-74
2022/10/01 15:40:54;;;;;;;;;;;;;;;;;;5054477;28;19971;-76
2022/10/01 15:43:25;;;;;;;;;;;;;;;;;;5055208;28;19978;-76
2022/10/01 15:46:11;;;;;;;;;;;;;;;;;;5054507;28;19925;-77
2022/10/01 15:48:38;;;;;;;;;;;;;;;;;;5054502;28;19925;-76
2022/10/01 15:51:06;;;;;;;;;;;;;;;;;;5054729;28;19925;-76
2022/10/01 15:53:34;;;;;;;;;;;;;;;;;;5053916;28;19931;-77
2022/10/01 15:56:08;;;;;;;;;;;;;;;;;;5055570;28;19947;-76
2022/10/01 15:58:35;;;;;;;;;;;;;;;;;;5054905;28;19928;-76
2022/10/01 16:01:04;;;;;;;;;;;;;;;;;;5055277;28;19932;-76
2022/10/01 16:03:32;;;;;;;;;;;;;;;;;;5037801;28;20295;-76
2022/10/01 16:06:00;;;;;;;;;;;;;;;;;;5034615;28;20013;-75
2022/10/01 16:08:33;;;;;;;;;;;;;;;;;;5034387;28;20307;-75
2022/10/01 16:11:14;;;;;;;;;;;;;;;;;;5034014;28;19971;-75
2022/10/01 16:13:43;;;;;;;;;;;;;;;;;;5034147;28;19925;-76
2022/10/01 16:16:18;;;;;;;;;;;;;;;;;;5033965;28;20354;-74
2022/10/01 16:18:51;;;;;;;;;;;;;;;;;;5033835;28;19932;-75
2022/10/01 16:21:18;;;;;;;;;;;;;;;;;;5034049;28;19979;-77
2022/10/01 16:23:46;;;;;;;;;;;;;;;;;;5033913;28;19929;-75
2022/10/01 16:26:43;;;;;;;;;;;;;;;;;;5033683;28;19929;-75
2022/10/01 16:29:22;;;;;;;;;;;;;;;;;;4972470;28;19934;-75
2022/10/01 16:31:49;;;;;;;;;;;;;;;;;;5024154;28;19925;-77
2022/10/01 16:34:17;;;;;;;;;;;;;;;;;;5033865;28;20307;-75
2022/10/01 16:36:43;;;;;;;;;;;;;;;;;;5037205;28;20351;-74
2022/10/01 16:39:12;;;;;;;;;;;;;;;;;;5035462;28;20273;-75
2022/10/01 16:41:39;;;;;;;;;;;;;;;;;;5036954;28;19925;-74
2022/10/01 16:44:06;;;;;;;;;;;;;;;;;;5037367;28;20035;-74
2022/10/01 16:46:33;;;;;;;;;;;;;;;;;;5035419;28;19956;-75
2022/10/01 16:49:00;;;;;;;;;;;;;;;;;;5033519;28;20291;-76
2022/10/01 16:51:27;;;;;;;;;;;;;;;;;;5033523;28;19925;-75
2022/10/01 16:53:54;;;;;;;;;;;;;;;;;;5033546;28;19969;-75
2022/10/01 16:56:20;;;;;;;;;;;;;;;;;;5032997;28;19929;-76
2022/10/01 16:58:47;;;;;;;;;;;;;;;;;;5033195;28;19940;-75
2022/10/01 17:01:14;;;;;;;;;;;;;;;;;;5033007;28;19971;-76
2022/10/01 17:03:42;;;;;;;;;;;;;;;;;;5051572;28;19947;-76
2022/10/01 17:06:09;;;;;;;;;;;;;;;;;;5052285;28;20012;-76
2022/10/01 17:08:35;;;;;;;;;;;;;;;;;;5052824;28;19931;-76